Time;durP1;ratioP1;P1;durP2;ratioP2;P2;SDS_P1;SDS_P2;PMS_P1;PMS_P2;Temp;Humidity;BMP_temperature;BMP_pressure;BME280_temperature;BME280_humidity;BME280_pressure;Samples;Min_cycle;Max_cycle;Signal;HPM_P1;HPM_P2
2023/07/18 00:02:11;;;;;;;3.73;1.27;;;16.90;1.00;;;;;;5000560;28;20237;-59
2023/07/18 00:04:38;;;;;;;7.63;1.77;;;16.90;1.00;;;;;;5002770;28;20420;-60
2023/07/18 00:07:06;;;;;;;9.40;1.40;;;16.90;1.00;;;;;;4996284;28;20540;-60
2023/07/18 00:09:35;;;;;;;8.10;1.70;;;16.90;1.00;;;;;;5000611;28;20490;-60
2023/07/18 00:12:03;;;;;;;1.67;1.17;;;16.80;1.00;;;;;;5006260;28;20719;-60
2023/07/18 00:14:30;;;;;;;4.40;1.67;;;16.80;1.00;;;;;;5004362;28;20201;-60
2023/07/18 00:16:58;;;;;;;6.57;1.67;;;16.60;1.00;;;;;;5005882;28;20534;-60
2023/07/18 00:19:27;;;;;;;7.07;1.57;;;16.70;1.00;;;;;;5006914;28;20205;-60
2023/07/18 00:21:55;;;;;;;6.00;1.90;;;16.60;1.00;;;;;;5007228;28;20205;-60
2023/07/18 00:24:22;;;;;;;2.67;1.50;;;16.70;1.00;;;;;;4996050;28;20197;-59
2023/07/18 00:26:49;;;;;;;3.10;1.57;;;16.50;1.00;;;;;;5005287;28;20197;-59
2023/07/18 00:29:17;;;;;;;3.70;1.60;;;16.40;1.00;;;;;;5000992;28;20215;-59
2023/07/18 00:31:43;;;;;;;6.07;2.00;;;16.50;1.00;;;;;;4999144;28;20621;-59
2023/07/18 00:34:11;;;;;;;5.23;2.00;;;16.50;1.00;;;;;;5004090;28;20259;-59
2023/07/18 00:36:38;;;;;;;5.47;2.17;;;16.40;1.00;;;;;;5006938;28;20209;-58
2023/07/18 00:39:05;;;;;;;3.70;2.10;;;16.40;99.90;;;;;;5006339;28;20201;-59
2023/07/18 00:41:32;;;;;;;5.60;2.20;;;16.10;33.30;;;;;;5003575;28;20255;-59
2023/07/18 00:43:59;;;;;;;9.00;2.60;;;16.10;1.00;;;;;;4994269;28;20230;-58
2023/07/18 00:46:26;;;;;;;7.83;2.60;;;16.10;1.00;;;;;;5001077;28;20204;-59
2023/07/18 00:48:54;;;;;;;3.47;2.50;;;16.10;1.00;;;;;;5002929;28;20224;-58
2023/07/18 00:51:24;;;;;;;6.77;2.37;;;16.10;1.00;;;;;;5008351;28;20552;-58
2023/07/18 00:53:52;;;;;;;6.90;2.60;;;16.20;1.00;;;;;;5013883;28;20220;-59
2023/07/18 00:56:19;;;;;;;5.73;2.60;;;16.30;1.00;;;;;;4997145;28;20641;-59
2023/07/18 00:58:47;;;;;;;10.00;3.07;;;16.30;99.90;;;;;;5004484;28;20202;-58
2023/07/18 01:01:13;;;;;;;4.53;1.83;;;16.40;99.90;;;;;;5003238;28;20244;-59
2023/07/18 01:03:41;;;;;;;7.67;2.40;;;16.30;99.90;;;;;;5012770;23;20273;-66
2023/07/18 01:06:09;;;;;;;4.63;2.23;;;16.30;99.90;;;;;;4996175;28;20896;-60
2023/07/18 01:08:38;;;;;;;6.67;2.33;;;16.30;99.90;;;;;;4996708;28;20558;-61
2023/07/18 01:11:06;;;;;;;6.00;2.07;;;16.20;99.90;;;;;;4995015;28;20214;-60
2023/07/18 01:13:34;;;;;;;6.77;1.97;;;16.20;99.90;;;;;;4992631;28;20202;-61
2023/07/18 01:16:02;;;;;;;8.37;2.30;;;16.20;99.90;;;;;;4994760;28;20216;-60
2023/07/18 01:18:29;;;;;;;9.80;2.67;;;16.20;99.90;;;;;;4993715;28;20557;-60
2023/07/18 01:20:58;;;;;;;3.90;2.37;;;16.10;99.90;;;;;;4996068;28;20220;-61
2023/07/18 01:23:25;;;;;;;5.37;2.10;;;16.30;1.00;;;;;;4996335;28;20737;-60
2023/07/18 01:25:52;;;;;;;7.27;2.33;;;16.20;1.00;;;;;;4998906;28;20752;-67
2023/07/18 01:28:19;;;;;;;4.17;2.70;;;16.30;1.00;;;;;;4996007;28;20201;-67
2023/07/18 01:30:46;;;;;;;4.70;2.20;;;16.20;99.90;;;;;;4983654;28;20205;-68
2023/07/18 01:33:13;;;;;;;6.33;2.57;;;16.20;1.00;;;;;;4995968;28;20212;-68
2023/07/18 01:35:40;;;;;;;7.30;2.73;;;16.10;1.00;;;;;;4996505;28;20202;-68
2023/07/18 01:38:07;;;;;;;7.60;2.23;;;16.10;1.00;;;;;;4997027;28;20214;-67
2023/07/18 01:40:34;;;;;;;5.60;2.57;;;16.10;1.00;;;;;;4997363;28;20761;-67
2023/07/18 01:43:01;;;;;;;4.10;2.60;;;16.10;1.00;;;;;;4994566;28;20280;-68
2023/07/18 01:45:28;;;;;;;5.80;2.30;;;16.10;1.00;;;;;;4998827;28;20297;-70
2023/07/18 01:47:56;;;;;;;6.73;2.70;;;16.10;1.00;;;;;;4997457;28;20750;-70
2023/07/18 01:50:24;;;;;;;8.00;2.90;;;16.00;1.00;;;;;;4997728;28;20220;-66
2023/07/18 01:52:51;;;;;;;4.97;2.57;;;16.10;1.00;;;;;;4989479;28;20287;-67
2023/07/18 01:55:17;;;;;;;5.53;3.47;;;16.10;1.00;;;;;;4992321;28;20233;-67
2023/07/18 01:57:49;;;;;;;8.67;2.97;;;16.10;1.00;;;;;;4990300;28;20677;-66
2023/07/18 02:00:21;;;;;;;6.83;2.93;;;16.00;1.00;;;;;;4996112;28;20608;-67
2023/07/18 02:02:51;;;;;;;7.47;2.97;;;16.00;1.00;;;;;;4977032;28;20255;-67
2023/07/18 02:05:24;;;;;;;6.63;2.90;;;16.00;1.00;;;;;;4990632;28;20732;-66
2023/07/18 02:07:52;;;;;;;11.17;5.20;;;16.00;1.00;;;;;;4990645;28;20297;-65
2023/07/18 02:10:20;;;;;;;11.60;3.10;;;15.90;1.00;;;;;;4989669;28;20282;-66
2023/07/18 02:12:49;;;;;;;8.17;2.70;;;15.90;1.00;;;;;;4986208;28;20207;-62
2023/07/18 02:15:16;;;;;;;6.90;2.90;;;15.90;1.00;;;;;;4991892;28;20691;-61
2023/07/18 02:17:43;;;;;;;4.97;2.60;;;15.90;1.00;;;;;;4985728;28;20207;-62
2023/07/18 02:20:11;;;;;;;4.47;2.67;;;15.90;25.50;;;;;;4988271;28;20566;-61
2023/07/18 02:22:41;;;;;;;6.73;2.80;;;15.90;1.00;;;;;;4986808;28;20278;-61
2023/07/18 02:25:09;;;;;;;4.37;2.90;;;15.80;43.40;;;;;;4988351;28;20207;-60
2023/07/18 02:27:39;;;;;;;8.67;3.00;;;15.70;1.00;;;;;;4986983;28;20201;-60
2023/07/18 02:30:11;;;;;;;8.60;2.60;;;15.70;1.00;;;;;;4989251;28;20190;-60
2023/07/18 02:32:39;;;;;;;6.90;3.63;;;15.70;99.90;;;;;;4990281;28;20570;-61
2023/07/18 02:35:07;;;;;;;6.50;2.80;;;15.70;1.00;;;;;;4984941;28;20296;-61
2023/07/18 02:37:34;;;;;;;8.73;2.87;;;15.70;99.90;;;;;;4985171;28;20280;-60
2023/07/18 02:40:09;;;;;;;6.87;3.10;;;15.50;99.90;;;;;;4990193;28;20202;-60
2023/07/18 02:42:38;;;;;;;3.93;2.80;;;15.40;1.00;;;;;;4985569;28;20244;-63
2023/07/18 02:45:09;;;;;;;6.40;3.00;;;15.50;99.90;;;;;;4986122;28;20281;-62
2023/07/18 02:47:37;;;;;;;5.90;3.00;;;15.30;99.90;;;;;;4990052;28;20739;-60
2023/07/18 02:50:05;;;;;;;5.00;2.77;;;15.20;1.00;;;;;;4989155;28;22011;-61
2023/07/18 02:52:32;;;;;;;6.13;3.07;;;15.30;1.00;;;;;;4988536;28;20212;-61
2023/07/18 02:54:59;;;;;;;7.43;3.50;;;15.30;1.00;;;;;;4988157;28;20271;-63
2023/07/18 02:57:26;;;;;;;5.60;3.37;;;15.40;1.00;;;;;;4991604;28;20264;-62
2023/07/18 02:59:53;;;;;;;5.23;3.13;;;15.30;1.00;;;;;;4989535;28;20616;-61
2023/07/18 03:02:20;;;;;;;5.73;2.80;;;15.30;1.00;;;;;;4991953;28;20226;-63
2023/07/18 03:04:48;;;;;;;3.43;2.60;;;15.30;1.00;;;;;;4993514;28;20328;-61
2023/07/18 03:07:17;;;;;;;5.17;2.80;;;15.30;1.00;;;;;;4996178;28;20362;-62
2023/07/18 03:09:45;;;;;;;5.07;2.70;;;15.30;1.00;;;;;;4977505;28;20210;-59
2023/07/18 03:12:12;;;;;;;5.80;3.33;;;15.30;1.00;;;;;;4993065;28;20292;-62
2023/07/18 03:14:39;;;;;;;5.33;3.17;;;15.30;1.00;;;;;;4993709;28;20301;-61
2023/07/18 03:17:06;;;;;;;8.70;3.80;;;15.40;1.00;;;;;;4993667;28;20210;-61
2023/07/18 03:19:33;;;;;;;3.90;3.00;;;15.40;99.90;;;;;;4995433;28;20272;-63
2023/07/18 03:22:00;;;;;;;8.17;2.97;;;15.30;1.00;;;;;;4977927;28;20246;-60
2023/07/18 03:24:27;;;;;;;3.87;2.80;;;15.30;1.00;;;;;;4991912;28;20592;-68
2023/07/18 03:26:54;;;;;;;5.07;2.70;;;15.30;1.00;;;;;;4991311;28;20201;-68
2023/07/18 03:29:21;;;;;;;5.30;2.97;;;15.30;1.00;;;;;;4987675;28;20223;-67
2023/07/18 03:31:48;;;;;;;9.83;3.30;;;15.20;48.40;;;;;;4990157;28;20210;-67
2023/07/18 03:34:14;;;;;;;8.67;3.10;;;15.20;1.00;;;;;;4987275;28;20194;-61
2023/07/18 03:36:41;;;;;;;4.67;2.87;;;15.10;1.00;;;;;;4990384;28;20251;-62
2023/07/18 03:39:08;;;;;;;4.60;3.47;;;15.10;1.00;;;;;;4989306;28;20210;-62
2023/07/18 03:41:35;;;;;;;4.50;2.70;;;15.00;1.00;;;;;;5000753;28;20659;-64
2023/07/18 03:44:03;;;;;;;5.10;3.20;;;15.00;1.00;;;;;;4985405;28;20207;-60
2023/07/18 03:46:30;;;;;;;4.83;2.97;;;15.10;99.90;;;;;;4989972;28;20717;-60
2023/07/18 03:48:57;;;;;;;6.73;3.20;;;15.00;99.90;;;;;;4996152;28;20237;-62
2023/07/18 03:51:24;;;;;;;3.00;2.60;;;14.90;1.00;;;;;;4992535;28;20226;-62
2023/07/18 03:53:54;;;;;;;6.43;3.23;;;15.00;99.90;;;;;;4988471;28;20202;-61
2023/07/18 03:56:21;;;;;;;5.73;2.60;;;15.00;99.90;;;;;;4993809;28;21186;-61
2023/07/18 03:58:50;;;;;;;4.67;2.63;;;14.90;1.00;;;;;;4989760;28;20222;-64
2023/07/18 04:01:17;;;;;;;6.90;3.10;;;14.90;1.00;;;;;;4991760;28;20684;-61
2023/07/18 04:03:45;;;;;;;6.20;2.80;;;15.00;99.90;;;;;;4987281;28;20243;-61
2023/07/18 04:06:12;;;;;;;4.17;2.80;;;15.00;1.00;;;;;;4988000;28;20760;-60
2023/07/18 04:08:40;;;;;;;5.07;2.77;;;15.00;99.90;;;;;;4990887;28;20542;-65
2023/07/18 04:11:08;;;;;;;4.97;2.77;;;14.90;99.90;;;;;;4992234;28;20612;-61
2023/07/18 04:13:35;;;;;;;4.30;2.63;;;15.00;99.90;;;;;;4989445;28;20231;-66
2023/07/18 04:16:05;;;;;;;4.83;2.70;;;14.90;16.70;;;;;;4990283;28;20209;-64
2023/07/18 04:18:32;;;;;;;3.40;2.33;;;14.80;99.90;;;;;;4987351;28;20534;-66
2023/07/18 04:21:02;;;;;;;6.37;3.20;;;14.90;99.90;;;;;;4975226;28;20225;-67
2023/07/18 04:23:30;;;;;;;5.13;2.80;;;14.90;99.90;;;;;;4985486;28;20228;-67
2023/07/18 04:26:00;;;;;;;4.03;3.10;;;14.90;99.90;;;;;;4987651;28;20202;-60
2023/07/18 04:28:32;;;;;;;4.40;2.50;;;15.00;99.90;;;;;;4997626;28;20206;-62
2023/07/18 04:30:59;;;;;;;5.40;2.93;;;15.10;99.90;;;;;;4996628;28;20697;-60
2023/07/18 04:33:26;;;;;;;5.97;3.23;;;14.90;1.00;;;;;;4994380;28;20573;-61
2023/07/18 04:35:53;;;;;;;3.83;2.60;;;14.80;1.00;;;;;;5000035;28;20852;-68
2023/07/18 04:38:20;;;;;;;6.37;2.63;;;14.80;1.00;;;;;;4986737;28;20270;-65
2023/07/18 04:40:47;;;;;;;4.20;2.77;;;14.80;1.00;;;;;;4988928;28;20199;-67
2023/07/18 04:43:14;;;;;;;5.80;3.47;;;14.90;99.90;;;;;;4986424;28;20592;-69
2023/07/18 04:45:44;;;;;;;7.33;3.20;;;15.00;1.00;;;;;;4997483;28;20209;-66
2023/07/18 04:48:16;;;;;;;5.63;2.90;;;14.90;99.90;;;;;;4994409;28;20201;-66
2023/07/18 04:50:45;;;;;;;5.10;2.67;;;15.00;7.60;;;;;;4994281;28;20198;-68
2023/07/18 04:53:12;;;;;;;4.33;2.23;;;14.90;1.00;;;;;;4987195;28;20202;-65
2023/07/18 04:55:39;;;;;;;5.07;2.40;;;15.00;99.90;;;;;;4989195;28;20202;-68
2023/07/18 04:58:07;;;;;;;6.63;3.03;;;15.00;99.90;;;;;;4989924;28;20263;-66
2023/07/18 05:00:35;;;;;;;4.73;2.80;;;14.80;99.90;;;;;;4989419;28;20742;-67
2023/07/18 05:03:01;;;;;;;5.63;3.10;;;15.00;99.90;;;;;;4985664;28;20419;-65
2023/07/18 05:05:29;;;;;;;5.50;2.67;;;15.00;99.90;;;;;;4992263;28;20203;-69
2023/07/18 05:08:01;;;;;;;6.93;3.00;;;14.90;99.90;;;;;;4991718;28;20209;-60
2023/07/18 05:10:29;;;;;;;5.00;2.33;;;15.10;99.90;;;;;;4990857;28;20573;-61
2023/07/18 05:12:56;;;;;;;5.80;3.13;;;15.10;1.00;;;;;;4985767;28;20221;-61
2023/07/18 05:15:23;;;;;;;8.97;2.83;;;15.10;1.00;;;;;;4986383;28;20794;-60
2023/07/18 05:17:50;;;;;;;3.70;2.57;;;15.20;1.00;;;;;;4986789;28;20205;-60
2023/07/18 05:20:19;;;;;;;4.97;2.47;;;15.10;7.40;;;;;;4994600;28;20672;-61
2023/07/18 05:22:46;;;;;;;6.73;2.30;;;15.30;1.00;;;;;;4984615;28;20310;-62
2023/07/18 05:25:15;;;;;;;3.53;2.30;;;15.40;1.00;;;;;;4989084;28;20207;-61
2023/07/18 05:27:43;;;;;;;4.07;2.63;;;15.40;1.00;;;;;;4987724;28;20207;-61
2023/07/18 05:30:17;;;;;;;7.93;2.50;;;15.50;1.00;;;;;;4990020;28;20209;-60
2023/07/18 05:32:46;;;;;;;6.00;2.53;;;15.60;99.90;;;;;;4986109;28;20223;-62
2023/07/18 05:35:16;;;;;;;4.97;2.47;;;15.60;99.90;;;;;;4986721;28;20233;-62
2023/07/18 05:37:43;;;;;;;3.30;2.23;;;15.50;99.90;;;;;;4991431;28;20287;-59
2023/07/18 05:40:11;;;;;;;3.50;2.03;;;15.50;99.90;;;;;;4992923;28;20700;-63
2023/07/18 05:42:42;;;;;;;2.43;2.07;;;15.70;99.90;;;;;;4987269;28;20469;-62
2023/07/18 05:45:09;;;;;;;4.37;2.27;;;16.00;99.90;;;;;;4989327;28;20301;-67
2023/07/18 05:47:36;;;;;;;6.20;2.87;;;16.10;1.00;;;;;;4987250;28;20221;-65
2023/07/18 05:50:06;;;;;;;5.83;2.17;;;16.00;1.00;;;;;;4989887;28;20197;-67
2023/07/18 05:52:33;;;;;;;6.67;2.13;;;15.90;1.00;;;;;;4990890;28;20301;-64
2023/07/18 05:55:00;;;;;;;5.07;2.00;;;15.90;99.90;;;;;;4992336;28;20207;-65
2023/07/18 05:57:27;;;;;;;4.87;2.17;;;16.00;80.90;;;;;;4986520;28;20206;-67
2023/07/18 05:59:54;;;;;;;5.47;2.03;;;16.20;1.00;;;;;;4987690;28;20697;-67
2023/07/18 06:02:21;;;;;;;5.30;2.17;;;16.40;1.00;;;;;;4978331;28;20227;-67
2023/07/18 06:04:49;;;;;;;5.00;2.00;;;16.30;1.00;;;;;;4992750;28;20258;-65
2023/07/18 06:07:16;;;;;;;4.50;2.10;;;16.20;1.00;;;;;;4987577;28;20207;-67
2023/07/18 06:09:43;;;;;;;5.23;2.10;;;16.10;1.00;;;;;;4989243;28;20231;-68
2023/07/18 06:12:11;;;;;;;3.63;2.00;;;16.10;1.00;;;;;;4978898;28;20651;-65
2023/07/18 06:14:38;;;;;;;5.33;2.33;;;16.20;1.00;;;;;;4992668;28;20207;-67
2023/07/18 06:17:05;;;;;;;4.80;2.47;;;16.30;1.00;;;;;;4985348;28;20652;-67
2023/07/18 06:19:32;;;;;;;2.93;2.07;;;16.30;1.00;;;;;;4977691;28;20210;-65
2023/07/18 06:21:59;;;;;;;7.47;2.53;;;16.40;1.00;;;;;;4972164;28;20212;-67
2023/07/18 06:24:26;;;;;;;6.63;2.40;;;16.40;1.00;;;;;;4966189;28;20212;-64
2023/07/18 06:26:53;;;;;;;6.73;3.23;;;16.40;1.00;;;;;;4986901;28;20798;-67
2023/07/18 06:29:20;;;;;;;8.47;3.20;;;16.50;1.00;;;;;;4984546;28;20201;-67
2023/07/18 06:31:48;;;;;;;6.23;3.07;;;16.70;1.00;;;;;;4989105;28;20609;-67
2023/07/18 06:34:18;;;;;;;5.33;2.33;;;16.80;1.00;;;;;;4986493;28;20219;-60
2023/07/18 06:36:45;;;;;;;7.00;2.70;;;16.90;1.00;;;;;;4989042;28;20209;-61
2023/07/18 06:39:14;;;;;;;9.27;2.93;;;16.90;1.00;;;;;;4987918;28;20267;-63
2023/07/18 06:41:41;;;;;;;9.03;2.43;;;16.80;1.00;;;;;;4983477;28;20199;-60
2023/07/18 06:44:09;;;;;;;5.63;3.23;;;16.80;1.00;;;;;;4970618;28;20770;-62
2023/07/18 06:46:36;;;;;;;7.80;3.00;;;17.10;1.00;;;;;;4983699;28;20231;-62
2023/07/18 06:49:03;;;;;;;4.63;2.60;;;17.50;1.00;;;;;;4987449;28;20221;-62
2023/07/18 06:51:30;;;;;;;9.13;3.03;;;17.70;1.00;;;;;;4980317;28;20208;-63
2023/07/18 06:53:57;;;;;;;6.60;2.80;;;17.90;1.00;;;;;;4972461;28;20211;-62
2023/07/18 06:56:24;;;;;;;6.43;2.30;;;18.10;99.90;;;;;;4979723;28;20199;-65
2023/07/18 06:58:51;;;;;;;5.80;3.23;;;18.20;99.90;;;;;;4618693;28;10000888;-64
2023/07/18 07:01:18;;;;;;;5.60;2.50;;;18.40;99.90;;;;;;4961057;28;20213;-63
2023/07/18 07:03:46;;;;;;;7.27;2.73;;;18.50;99.90;;;;;;4977843;28;20250;-64
2023/07/18 07:06:13;;;;;;;7.07;2.53;;;19.00;99.90;;;;;;4965547;28;20218;-65
2023/07/18 07:08:40;;;;;;;4.70;2.07;;;18.90;99.90;;;;;;4975088;28;20568;-65
2023/07/18 07:11:08;;;;;;;6.47;3.60;;;19.50;24.40;;;;;;4963761;28;20197;-67
2023/07/18 07:13:36;;;;;;;5.13;2.50;;;19.70;12.20;;;;;;4978957;28;20235;-65
2023/07/18 07:16:04;;;;;;;4.43;2.07;;;19.90;1.00;;;;;;4959273;28;20224;-66
2023/07/18 07:18:31;;;;;;;6.07;2.93;;;20.10;1.00;;;;;;4964658;28;20197;-65
2023/07/18 07:20:59;;;;;;;6.13;2.30;;;20.00;1.00;;;;;;4983197;28;20983;-64
2023/07/18 07:23:26;;;;;;;6.40;2.20;;;20.00;1.00;;;;;;4972616;28;20694;-64
2023/07/18 07:25:53;;;;;;;7.50;2.10;;;20.10;1.00;;;;;;4985161;28;20318;-65
2023/07/18 07:28:22;;;;;;;4.13;1.90;;;20.40;1.00;;;;;;4982783;28;20589;-64
2023/07/18 07:30:51;;;;;;;4.37;1.80;;;20.40;1.00;;;;;;4974833;28;20573;-64
2023/07/18 07:33:19;;;;;;;6.37;2.07;;;20.70;1.00;;;;;;4982805;28;20209;-66
2023/07/18 07:35:46;;;;;;;7.07;1.80;;;20.70;1.00;;;;;;4983706;28;20555;-64
2023/07/18 07:38:13;;;;;;;4.57;2.13;;;20.30;1.00;;;;;;4986473;28;20208;-65
2023/07/18 07:40:40;;;;;;;7.43;1.67;;;20.30;1.00;;;;;;4986209;28;20217;-62
2023/07/18 07:43:07;;;;;;;6.37;2.27;;;20.70;1.00;;;;;;4985529;28;20206;-66
2023/07/18 07:45:34;;;;;;;5.60;1.90;;;20.90;1.00;;;;;;4985887;28;20246;-64
2023/07/18 07:48:01;;;;;;;2.67;1.40;;;21.30;1.00;;;;;;4990802;28;20202;-65
2023/07/18 07:50:28;;;;;;;4.73;2.00;;;21.20;1.00;;;;;;4982348;28;20202;-65
2023/07/18 07:52:55;;;;;;;5.13;2.20;;;21.30;1.00;;;;;;4988680;28;20244;-65
2023/07/18 07:55:22;;;;;;;5.13;1.80;;;21.20;1.00;;;;;;4984029;28;20210;-64
2023/07/18 07:57:48;;;;;;;7.80;3.10;;;20.50;1.00;;;;;;4980528;28;20672;-62
2023/07/18 08:00:16;;;;;;;3.93;1.57;;;20.50;1.00;;;;;;4978927;28;20230;-62
2023/07/18 08:02:43;;;;;;;4.50;1.80;;;20.70;1.00;;;;;;4985944;28;20355;-63
2023/07/18 08:05:09;;;;;;;3.30;1.60;;;21.00;1.00;;;;;;4988016;28;20766;-60
2023/07/18 08:07:37;;;;;;;4.80;2.00;;;21.40;1.00;;;;;;4973493;28;20226;-61
2023/07/18 08:10:05;;;;;;;8.03;2.07;;;21.10;1.00;;;;;;4988175;28;20838;-61
2023/07/18 08:12:32;;;;;;;4.43;1.40;;;21.20;1.00;;;;;;4990249;28;20198;-61
2023/07/18 08:14:59;;;;;;;2.20;1.10;;;21.20;1.00;;;;;;4981448;28;20634;-61
2023/07/18 08:17:25;;;;;;;2.27;1.07;;;21.50;1.00;;;;;;4984765;28;20201;-61
2023/07/18 08:19:52;;;;;;;4.27;1.10;;;21.30;1.00;;;;;;4989667;28;20537;-60
2023/07/18 08:22:19;;;;;;;1.80;0.83;;;21.70;1.00;;;;;;4989497;28;21678;-61
2023/07/18 08:24:46;;;;;;;4.00;1.02;;;21.90;1.00;;;;;;4990656;28;20472;-61
2023/07/18 08:27:13;;;;;;;3.53;0.90;;;21.60;1.00;;;;;;4995247;28;20253;-62
2023/07/18 08:29:41;;;;;;;5.03;1.03;;;22.80;1.00;;;;;;4987072;28;20205;-60
2023/07/18 08:32:09;;;;;;;3.60;0.80;;;23.70;1.00;;;;;;4989416;28;20206;-60
2023/07/18 08:34:36;;;;;;;2.73;0.90;;;23.80;1.00;;;;;;4986898;28;20257;-61
2023/07/18 08:37:05;;;;;;;2.33;0.73;;;23.70;1.00;;;;;;4985504;28;20228;-60
2023/07/18 08:39:32;;;;;;;2.63;0.80;;;23.30;1.00;;;;;;4981791;28;20213;-60
2023/07/18 08:41:59;;;;;;;2.43;0.53;;;22.80;1.00;;;;;;4978703;28;20925;-60
2023/07/18 08:44:26;;;;;;;2.43;0.53;;;24.30;1.00;;;;;;4987278;28;20218;-59
2023/07/18 08:46:54;;;;;;;9.63;0.77;;;25.00;99.90;;;;;;4979630;28;20261;-62
2023/07/18 08:49:23;;;;;;;2.27;0.70;;;24.80;99.90;;;;;;4984278;28;20677;-59
2023/07/18 08:51:50;;;;;;;2.43;0.83;;;25.00;99.90;;;;;;4986835;28;20562;-63
2023/07/18 08:54:17;;;;;;;1.43;0.70;;;25.10;99.90;;;;;;4988505;28;20209;-63
2023/07/18 08:56:44;;;;;;;2.80;0.77;;;24.40;99.90;;;;;;4986456;28;20270;-60
2023/07/18 08:59:12;;;;;;;1.10;0.50;;;24.20;99.90;;;;;;4989179;28;20202;-61
2023/07/18 09:01:50;;;;;;;1.73;0.60;;;23.80;99.90;;;;;;4984418;28;20206;-60
2023/07/18 09:04:18;;;;;;;1.63;0.60;;;23.90;99.90;;;;;;4984815;28;20232;-63
2023/07/18 09:06:55;;;;;;;3.27;0.50;;;24.30;99.90;;;;;;4979623;28;20537;-61
2023/07/18 09:09:23;;;;;;;2.27;0.60;;;24.90;99.90;;;;;;4982648;28;20196;-60
2023/07/18 09:11:57;;;;;;;1.90;0.50;;;26.10;99.90;;;;;;4985182;28;20209;-63
2023/07/18 09:14:31;;;;;;;1.63;0.60;;;25.50;99.90;;;;;;4987125;28;20212;-61
2023/07/18 09:17:04;;;;;;;4.07;1.13;;;24.30;99.90;;;;;;4987965;28;20704;-63
2023/07/18 09:19:41;;;;;;;2.33;0.70;;;23.90;99.90;;;;;;4990369;28;20223;-61
2023/07/18 09:22:13;;;;;;;1.60;0.57;;;24.50;99.90;;;;;;4984645;28;20215;-62
2023/07/18 09:24:41;;;;;;;2.47;0.80;;;25.10;99.90;;;;;;4989390;28;20214;-60
2023/07/18 09:27:18;;;;;;;1.87;0.70;;;25.00;99.90;;;;;;4987542;28;20603;-61
2023/07/18 09:29:47;;;;;;;4.70;0.93;;;25.20;99.90;;;;;;4988403;28;20569;-63
2023/07/18 09:32:18;;;;;;;4.10;0.87;;;25.00;99.90;;;;;;4977738;28;20210;-59
2023/07/18 09:34:52;;;;;;;2.47;0.60;;;24.20;99.90;;;;;;4985680;28;20206;-59
2023/07/18 09:37:20;;;;;;;3.93;0.70;;;25.10;99.90;;;;;;4986949;28;20280;-60
2023/07/18 09:39:48;;;;;;;2.40;0.67;;;24.40;99.90;;;;;;4982481;28;20202;-63
2023/07/18 09:42:19;;;;;;;1.80;1.13;;;24.60;99.90;;;;;;4982814;28;20209;-60
2023/07/18 09:44:48;;;;;;;1.80;0.60;;;24.30;99.90;;;;;;4981519;28;20260;-63
2023/07/18 09:47:18;;;;;;;1.20;0.40;;;24.60;99.90;;;;;;4983111;28;20212;-61
2023/07/18 09:49:45;;;;;;;2.47;0.60;;;25.00;99.90;;;;;;4984373;28;20259;-60
2023/07/18 09:52:14;;;;;;;1.33;0.50;;;25.20;99.90;;;;;;4973552;28;22279;-63
2023/07/18 09:54:43;;;;;;;1.20;0.40;;;25.20;99.90;;;;;;4984251;28;20210;-62
2023/07/18 09:57:11;;;;;;;2.17;0.43;;;24.40;99.90;;;;;;4980244;28;20214;-62
2023/07/18 09:59:39;;;;;;;3.10;0.67;;;24.50;99.90;;;;;;4984259;28;20218;-62
2023/07/18 10:02:09;;;;;;;3.27;0.80;;;24.00;99.90;;;;;;4982101;28;21317;-61
2023/07/18 10:04:38;;;;;;;3.07;0.70;;;24.40;99.90;;;;;;4987353;28;20233;-61
2023/07/18 10:07:08;;;;;;;3.30;0.67;;;24.40;99.90;;;;;;4973157;28;20206;-60
2023/07/18 10:09:36;;;;;;;4.25;1.35;;;24.00;99.90;;;;;;4986506;28;20198;-62
2023/07/18 10:12:03;;;;;;;3.13;0.60;;;24.10;99.90;;;;;;4977879;28;20675;-60
2023/07/18 10:14:52;;;;;;;0.93;0.40;;;24.00;99.90;;;;;;4982895;28;20206;-60
2023/07/18 10:17:43;;;;;;;1.70;0.60;;;24.10;99.90;;;;;;4982694;28;20415;-61
2023/07/18 10:20:17;;;;;;;3.77;0.70;;;24.10;99.90;;;;;;4986670;28;20202;-62
2023/07/18 10:22:58;;;;;;;2.60;1.10;;;23.90;99.90;;;;;;4985328;28;20204;-63
2023/07/18 10:25:28;;;;;;;3.03;0.60;;;24.00;99.90;;;;;;4984000;28;20233;-65
2023/07/18 10:27:57;;;;;;;2.93;0.60;;;23.80;99.90;;;;;;4978795;28;20216;-64
2023/07/18 10:30:42;;;;;;;1.00;0.57;;;24.20;99.90;;;;;;4983863;28;20775;-64
2023/07/18 10:33:09;;;;;;;2.20;0.60;;;24.00;99.90;;;;;;4983104;28;20284;-64
2023/07/18 10:35:42;;;;;;;1.60;0.60;;;24.20;99.90;;;;;;4987609;28;20254;-64
2023/07/18 10:38:13;;;;;;;1.90;0.60;;;24.10;99.90;;;;;;4979142;28;20198;-65
2023/07/18 10:40:43;;;;;;;3.87;0.53;;;24.70;99.90;;;;;;4987597;28;20301;-64
2023/07/18 10:43:16;;;;;;;2.53;0.73;;;24.30;99.90;;;;;;4985268;28;20209;-63
2023/07/18 10:45:43;;;;;;;2.70;0.70;;;24.40;99.90;;;;;;4985780;28;20197;-66
2023/07/18 10:48:11;;;;;;;1.20;0.43;;;24.70;99.90;;;;;;4985621;28;20256;-64
2023/07/18 10:50:38;;;;;;;2.93;0.60;;;24.80;99.90;;;;;;4976446;28;20296;-67
2023/07/18 10:53:09;;;;;;;1.63;0.50;;;24.80;99.90;;;;;;4983884;28;20198;-66
2023/07/18 10:55:36;;;;;;;1.77;0.40;;;24.50;99.90;;;;;;4979790;28;20202;-64
2023/07/18 10:58:10;;;;;;;2.10;0.60;;;24.10;99.90;;;;;;4988018;28;20190;-65
2023/07/18 11:00:40;;;;;;;3.03;0.60;;;24.50;99.90;;;;;;4992460;28;20195;-65
2023/07/18 11:03:18;;;;;;;1.47;0.80;;;25.20;99.90;;;;;;4981438;28;20239;-64
2023/07/18 11:05:50;;;;;;;1.83;0.63;;;25.20;99.90;;;;;;4986361;28;21031;-65
2023/07/18 11:08:28;;;;;;;2.13;0.60;;;25.50;99.90;;;;;;4985340;28;20255;-63
2023/07/18 11:11:00;;;;;;;1.67;0.60;;;26.40;99.90;;;;;;4983475;28;20203;-63
2023/07/18 11:13:30;;;;;;;2.97;1.10;;;26.20;99.90;;;;;;4982792;28;20323;-64
2023/07/18 11:16:09;;;;;;;3.33;0.70;;;26.40;99.90;;;;;;4983881;28;20195;-63
2023/07/18 11:18:38;;;;;;;1.43;0.50;;;26.50;99.90;;;;;;4976666;28;20585;-64
2023/07/18 11:21:06;;;;;;;4.87;0.70;;;26.90;99.90;;;;;;4966894;28;20196;-64
2023/07/18 11:23:34;;;;;;;3.00;1.07;;;26.60;99.90;;;;;;4963598;28;20580;-64
2023/07/18 11:26:13;;;;;;;4.00;1.00;;;26.30;99.90;;;;;;4964128;28;20280;-65
2023/07/18 11:28:41;;;;;;;1.47;0.63;;;25.90;99.90;;;;;;4962176;28;20249;-65
2023/07/18 11:31:21;;;;;;;2.80;0.67;;;26.20;99.90;;;;;;4975161;28;20276;-64
2023/07/18 11:34:06;;;;;;;2.00;0.60;;;26.00;99.90;;;;;;4972322;28;20244;-63
2023/07/18 11:36:38;;;;;;;2.50;0.70;;;26.40;99.90;;;;;;4959088;28;20251;-64
2023/07/18 11:39:19;;;;;;;2.90;0.73;;;27.00;99.90;;;;;;4959503;28;20255;-64
2023/07/18 11:41:47;;;;;;;2.03;0.70;;;28.00;99.90;;;;;;4957520;28;20209;-64
2023/07/18 11:44:24;;;;;;;3.10;0.70;;;27.40;99.90;;;;;;4969819;28;20224;-65
2023/07/18 11:46:52;;;;;;;2.93;0.90;;;28.50;99.90;;;;;;4978446;28;20205;-65
2023/07/18 11:49:35;;;;;;;1.50;0.60;;;28.80;99.90;;;;;;4987928;28;20341;-66
2023/07/18 11:52:04;;;;;;;6.20;0.80;;;28.70;99.90;;;;;;4975775;28;20201;-65
2023/07/18 11:54:38;;;;;;;1.98;0.60;;;28.40;99.90;;;;;;4970823;28;21808;-65
2023/07/18 11:57:05;;;;;;;1.70;0.80;;;27.80;99.90;;;;;;4971300;28;20208;-65
2023/07/18 11:59:33;;;;;;;1.80;0.60;;;28.20;99.90;;;;;;4959423;28;20682;-65
2023/07/18 12:02:01;;;;;;;2.05;0.50;;;29.30;99.90;;;;;;4962400;28;20206;-64
2023/07/18 12:04:28;;;;;;;4.60;0.77;;;29.00;99.90;;;;;;4956788;28;20337;-64
2023/07/18 12:06:57;;;;;;;2.67;1.03;;;28.30;99.90;;;;;;4977091;28;20300;-66
2023/07/18 12:09:24;;;;;;;3.23;0.83;;;28.30;99.90;;;;;;4969220;28;20229;-65
2023/07/18 12:11:54;;;;;;;3.23;1.30;;;27.80;99.90;;;;;;4970684;28;20712;-64
2023/07/18 12:14:21;;;;;;;2.17;1.13;;;27.30;99.90;;;;;;4966907;28;20212;-64
2023/07/18 12:16:48;;;;;;;3.23;0.97;;;27.80;99.90;;;;;;4953635;28;20220;-65
2023/07/18 12:19:15;;;;;;;3.33;0.73;;;26.90;99.90;;;;;;4967750;28;20198;-66
2023/07/18 12:21:42;;;;;;;1.90;1.33;;;27.90;99.90;;;;;;4964050;28;20214;-69
2023/07/18 12:24:09;;;;;;;12.83;1.57;;;27.80;99.90;;;;;;4971478;28;20278;-65
2023/07/18 12:26:36;;;;;;;3.57;1.10;;;28.10;99.90;;;;;;4968096;28;20599;-62
2023/07/18 12:29:03;;;;;;;4.20;1.00;;;27.30;99.90;;;;;;4957556;28;20772;-67
2023/07/18 12:31:33;;;;;;;5.97;1.83;;;26.30;99.90;;;;;;4963144;28;22129;-65
2023/07/18 12:34:01;;;;;;;1.08;0.68;;;27.40;99.90;;;;;;4960105;28;20260;-68
2023/07/18 12:36:28;;;;;;;1.17;0.55;;;27.80;99.90;;;;;;4963978;28;20213;-68
2023/07/18 12:38:55;;;;;;;1.08;0.63;;;28.10;99.90;;;;;;4971655;28;20209;-67
2023/07/18 12:41:22;;;;;;;3.20;0.70;;;28.00;99.90;;;;;;4955852;28;20783;-65
2023/07/18 12:43:49;;;;;;;1.75;0.60;;;28.40;99.90;;;;;;4958391;28;20201;-66
2023/07/18 12:46:16;;;;;;;1.27;0.60;;;27.20;99.90;;;;;;4971948;28;20889;-63
2023/07/18 12:48:44;;;;;;;1.27;0.50;;;26.60;99.90;;;;;;4965742;28;20803;-63
2023/07/18 12:51:14;;;;;;;1.10;0.45;;;26.40;99.90;;;;;;4970990;28;20286;-63
2023/07/18 12:53:40;;;;;;;0.93;0.52;;;26.30;99.90;;;;;;4993476;28;20231;-63
2023/07/18 12:56:07;;;;;;;3.17;0.70;;;26.70;99.90;;;;;;4992275;28;20609;-64
2023/07/18 12:58:34;;;;;;;1.45;0.40;;;26.70;99.90;;;;;;4986466;28;20637;-63